createdAt,value
2018-06-02T00:01:22.875Z,18.80
2018-06-02T00:03:50.447Z,18.80
2018-06-02T00:06:18.034Z,18.90
2018-06-02T00:08:45.570Z,18.80
2018-06-02T00:11:13.129Z,18.80
2018-06-02T00:13:40.667Z,18.70
2018-06-02T00:16:08.207Z,18.70
2018-06-02T00:18:35.758Z,18.70
2018-06-02T00:21:04.132Z,18.60
2018-06-02T00:23:31.702Z,18.60
2018-06-02T00:26:00.037Z,18.60
2018-06-02T00:28:27.593Z,18.60
2018-06-02T00:30:55.126Z,18.60
2018-06-02T00:33:22.688Z,18.70
2018-06-02T00:35:50.227Z,18.60
2018-06-02T00:38:17.770Z,18.70
2018-06-02T00:40:46.249Z,18.70
2018-06-02T00:43:13.807Z,18.70
2018-06-02T00:45:42.114Z,18.60
2018-06-02T00:48:09.735Z,18.60
2018-06-02T00:50:37.264Z,18.60
2018-06-02T00:53:04.904Z,18.60
2018-06-02T00:55:32.456Z,18.60
2018-06-02T00:58:00.126Z,18.60
2018-06-02T01:00:27.661Z,18.60
2018-06-02T01:02:55.231Z,18.60
2018-06-02T01:05:22.789Z,18.50
2018-06-02T01:07:50.318Z,18.50
2018-06-02T01:10:17.859Z,18.50
2018-06-02T01:12:45.399Z,18.50
2018-06-02T01:15:12.927Z,18.50
2018-06-02T01:17:40.477Z,18.50
2018-06-02T01:20:08.035Z,18.40
2018-06-02T01:22:35.598Z,18.40
2018-06-02T01:25:03.147Z,18.40
2018-06-02T01:27:30.705Z,18.50
2018-06-02T01:29:58.319Z,18.40
2018-06-02T01:32:25.999Z,18.30
2018-06-02T01:34:53.645Z,18.30
2018-06-02T01:37:21.173Z,18.40
2018-06-02T01:39:48.729Z,18.40
2018-06-02T01:42:16.273Z,18.40
2018-06-02T01:44:44.578Z,18.40
2018-06-02T01:47:12.133Z,18.40
2018-06-02T01:49:39.683Z,18.30
2018-06-02T01:52:07.215Z,18.40
2018-06-02T01:54:34.775Z,18.40
2018-06-02T01:57:02.355Z,18.30
2018-06-02T01:59:30.198Z,18.30
2018-06-02T02:01:57.725Z,18.20
2018-06-02T02:04:25.259Z,18.20
2018-06-02T02:06:52.799Z,18.20
2018-06-02T02:09:20.323Z,18.10
2018-06-02T02:11:48.619Z,18.20
2018-06-02T02:14:16.157Z,18.20
2018-06-02T02:16:43.696Z,18.20
2018-06-02T02:19:11.235Z,18.20
2018-06-02T02:21:38.769Z,18.20
2018-06-02T02:24:06.346Z,18.20
2018-06-02T02:26:33.870Z,18.20
2018-06-02T02:29:01.435Z,18.10
2018-06-02T02:31:28.967Z,18.10
2018-06-02T02:33:56.530Z,18.00
2018-06-02T02:36:24.837Z,17.90
2018-06-02T02:38:52.369Z,17.90
2018-06-02T02:41:19.897Z,17.90
2018-06-02T02:43:47.445Z,17.80
2018-06-02T02:46:14.971Z,17.80
2018-06-02T02:48:42.521Z,17.80
2018-06-02T02:51:10.072Z,17.80
2018-06-02T02:53:37.608Z,17.70
2018-06-02T02:56:05.925Z,17.80
2018-06-02T02:58:33.487Z,17.80
2018-06-02T03:01:01.039Z,17.80
2018-06-02T03:03:28.613Z,17.80
2018-06-02T03:05:56.140Z,17.80
2018-06-02T03:08:23.679Z,17.80
2018-06-02T03:10:52.021Z,17.60
2018-06-02T03:13:19.558Z,17.60
2018-06-02T03:15:47.091Z,17.60
2018-06-02T03:18:14.614Z,17.60
2018-06-02T03:20:42.144Z,17.60
2018-06-02T03:23:09.695Z,17.70
2018-06-02T03:25:38.089Z,17.60
2018-06-02T03:28:05.645Z,17.50
2018-06-02T03:30:33.167Z,17.50
2018-06-02T03:33:00.729Z,17.50
2018-06-02T03:35:28.271Z,17.50
2018-06-02T03:37:56.628Z,17.40
2018-06-02T03:40:24.189Z,17.40
2018-06-02T03:42:51.723Z,17.40
2018-06-02T03:45:19.291Z,17.40
2018-06-02T03:47:46.839Z,17.40
2018-06-02T03:50:14.368Z,17.40
2018-06-02T03:52:41.915Z,17.40
2018-06-02T03:55:10.197Z,17.40
2018-06-02T03:57:37.729Z,17.30
2018-06-02T04:00:05.328Z,17.40
2018-06-02T04:02:32.864Z,17.40
2018-06-02T04:05:00.428Z,17.40
2018-06-02T04:07:28.751Z,17.40
2018-06-02T04:09:56.296Z,17.40
2018-06-02T04:12:23.872Z,17.30
2018-06-02T04:14:51.430Z,17.30
2018-06-02T04:17:18.967Z,17.40
2018-06-02T04:19:46.502Z,17.40
2018-06-02T04:22:14.040Z,17.30
2018-06-02T04:24:42.337Z,17.40
2018-06-02T04:27:09.880Z,17.30
2018-06-02T04:29:37.421Z,17.30
2018-06-02T04:32:04.977Z,17.30
2018-06-02T04:34:32.543Z,17.20
2018-06-02T04:37:00.080Z,17.30
2018-06-02T04:39:27.610Z,17.30
2018-06-02T04:41:55.155Z,17.30
2018-06-02T04:44:22.714Z,17.30
2018-06-02T04:46:50.278Z,17.30
2018-06-02T04:49:17.903Z,17.30
2018-06-02T04:51:45.471Z,17.20
2018-06-02T04:54:13.818Z,17.30
2018-06-02T04:56:41.329Z,17.30
2018-06-02T04:59:08.872Z,17.20
2018-06-02T05:01:36.412Z,17.20
2018-06-02T05:04:03.969Z,17.20
2018-06-02T05:06:31.509Z,17.20
2018-06-02T05:08:59.050Z,17.10
2018-06-02T05:11:26.608Z,17.20
2018-06-02T05:13:54.155Z,17.10
2018-06-02T05:16:21.690Z,17.10
2018-06-02T05:18:49.244Z,17.10
2018-06-02T05:21:17.563Z,17.10
2018-06-02T05:23:45.101Z,17.10
2018-06-02T05:26:12.640Z,17.00
2018-06-02T05:28:40.990Z,17.00
2018-06-02T05:31:08.502Z,17.00
2018-06-02T05:33:36.065Z,17.10
2018-06-02T05:36:03.599Z,17.10
2018-06-02T05:38:31.141Z,17.10
2018-06-02T05:40:58.685Z,17.10
2018-06-02T05:43:26.245Z,17.10
2018-06-02T05:45:53.782Z,17.10
2018-06-02T05:48:21.343Z,17.10
2018-06-02T05:50:48.873Z,17.10
2018-06-02T05:53:16.400Z,17.10
2018-06-02T05:55:44.690Z,17.10
2018-06-02T05:58:12.268Z,17.10
2018-06-02T06:00:39.808Z,17.10
2018-06-02T06:03:07.331Z,17.10
2018-06-02T06:05:34.876Z,17.10
2018-06-02T06:08:02.429Z,17.10
2018-06-02T06:10:29.950Z,17.10
2018-06-02T06:12:57.488Z,17.10
2018-06-02T06:15:25.778Z,17.10
2018-06-02T06:17:53.320Z,17.10
2018-06-02T06:20:21.636Z,17.10
2018-06-02T06:22:49.169Z,17.10
2018-06-02T06:25:16.722Z,17.20
2018-06-02T06:27:45.037Z,17.10
2018-06-02T06:30:12.564Z,17.10
2018-06-02T06:32:40.107Z,17.10
2018-06-02T06:35:08.438Z,17.20
2018-06-02T06:37:35.995Z,17.20
2018-06-02T06:40:03.554Z,17.30
2018-06-02T06:42:31.114Z,17.20
2018-06-02T06:44:58.650Z,17.30
2018-06-02T06:47:26.195Z,17.30
2018-06-02T06:49:53.755Z,17.30
2018-06-02T06:52:21.293Z,17.30
2018-06-02T06:54:49.594Z,17.20
2018-06-02T06:57:17.145Z,17.20
2018-06-02T06:59:44.715Z,17.20
2018-06-02T07:02:12.224Z,17.20
2018-06-02T07:04:39.756Z,17.20
2018-06-02T07:07:07.305Z,17.10
2018-06-02T07:09:34.851Z,17.10
2018-06-02T07:12:02.470Z,17.00
2018-06-02T07:14:30.085Z,17.00
2018-06-02T07:16:57.615Z,16.90
2018-06-02T07:19:25.147Z,16.90
2018-06-02T07:21:52.679Z,16.80
2018-06-02T07:24:20.209Z,16.80
2018-06-02T07:26:47.753Z,16.70
2018-06-02T07:29:15.277Z,16.80
2018-06-02T07:31:42.848Z,16.80
2018-06-02T07:34:11.987Z,16.80
2018-06-02T07:36:39.526Z,16.80
2018-06-02T07:39:07.073Z,16.70
2018-06-02T07:41:34.640Z,16.70
2018-06-02T07:44:02.204Z,16.70
2018-06-02T07:46:29.773Z,16.80
2018-06-02T07:48:57.316Z,16.80
2018-06-02T07:51:24.967Z,16.80
2018-06-02T07:53:52.498Z,16.70
2018-06-02T07:56:20.029Z,16.80
2018-06-02T07:58:47.579Z,16.80
2018-06-02T08:01:15.139Z,16.80
2018-06-02T08:03:42.684Z,16.90
2018-06-02T08:06:10.258Z,17.00
2018-06-02T08:08:37.792Z,17.00
2018-06-02T08:11:05.357Z,17.10
2018-06-02T08:13:32.972Z,17.10
2018-06-02T08:16:00.529Z,17.10
2018-06-02T08:18:28.079Z,17.10
2018-06-02T08:20:55.637Z,17.10
2018-06-02T08:23:23.238Z,17.10
2018-06-02T08:25:51.532Z,17.10
2018-06-02T08:28:19.063Z,17.10
2018-06-02T08:30:46.658Z,17.10
2018-06-02T08:33:14.189Z,17.20
2018-06-02T08:35:41.720Z,17.20
2018-06-02T08:38:09.285Z,17.30
2018-06-02T08:40:36.829Z,17.20
2018-06-02T08:43:04.375Z,17.20
2018-06-02T08:45:31.902Z,17.20
2018-06-02T08:47:59.454Z,17.20
2018-06-02T08:50:26.984Z,17.20
2018-06-02T08:52:54.535Z,17.30
2018-06-02T08:55:22.081Z,17.30
2018-06-02T08:57:49.625Z,17.40
2018-06-02T09:00:17.156Z,17.40
2018-06-02T09:02:44.699Z,17.40
2018-06-02T09:05:12.243Z,17.40
2018-06-02T09:07:40.558Z,17.40
2018-06-02T09:10:08.096Z,17.40
2018-06-02T09:12:36.421Z,17.30
2018-06-02T09:15:03.968Z,17.30
2018-06-02T09:17:31.538Z,17.30
2018-06-02T09:19:59.071Z,17.30
2018-06-02T09:22:26.631Z,17.30
2018-06-02T09:24:54.178Z,17.40
2018-06-02T09:27:21.729Z,17.40
2018-06-02T09:29:49.282Z,17.40
2018-06-02T09:32:17.586Z,17.50
2018-06-02T09:34:45.157Z,17.50
2018-06-02T09:37:12.781Z,17.50
2018-06-02T09:39:40.314Z,17.40
2018-06-02T09:42:07.851Z,17.40
2018-06-02T09:44:35.415Z,17.40
2018-06-02T09:47:02.958Z,17.40
2018-06-02T09:49:30.521Z,17.50
2018-06-02T09:51:58.069Z,17.40
2018-06-02T09:54:25.609Z,17.50
2018-06-02T09:56:54.177Z,17.50
2018-06-02T09:59:22.495Z,17.60
2018-06-02T10:01:50.031Z,17.60
2018-06-02T10:04:17.587Z,17.60
2018-06-02T10:06:45.127Z,17.60
2018-06-02T10:09:12.665Z,17.50
2018-06-02T10:11:40.980Z,17.50
2018-06-02T10:14:08.536Z,17.50
2018-06-02T10:16:36.063Z,17.50
2018-06-02T10:19:04.373Z,17.40
2018-06-02T10:21:31.970Z,17.40
2018-06-02T10:23:59.482Z,17.40
2018-06-02T10:26:27.035Z,17.40
2018-06-02T10:28:54.576Z,17.40
2018-06-02T10:31:22.879Z,17.50
2018-06-02T10:33:50.458Z,17.50
2018-06-02T10:36:17.994Z,17.50
2018-06-02T10:38:45.525Z,17.50
2018-06-02T10:41:13.083Z,17.50
2018-06-02T10:43:40.616Z,17.50
2018-06-02T10:46:08.176Z,17.50
2018-06-02T10:48:35.715Z,17.60
2018-06-02T10:51:03.264Z,17.60
2018-06-02T10:53:30.811Z,17.60
2018-06-02T10:55:58.440Z,17.60
2018-06-02T10:58:25.909Z,17.70
2018-06-02T11:00:54.207Z,17.80
2018-06-02T11:03:21.743Z,17.80
2018-06-02T11:05:49.284Z,17.80
2018-06-02T11:08:16.849Z,17.80
2018-06-02T11:10:45.151Z,17.90
2018-06-02T11:13:12.735Z,17.90
2018-06-02T11:15:40.285Z,18.00
2018-06-02T11:18:07.830Z,17.90
2018-06-02T11:20:35.373Z,18.00
2018-06-02T11:23:03.681Z,17.90
2018-06-02T11:25:31.258Z,17.90
2018-06-02T11:27:58.787Z,18.00
2018-06-02T11:30:26.330Z,18.10
2018-06-02T11:32:53.872Z,18.10
2018-06-02T11:35:22.205Z,18.00
2018-06-02T11:37:49.759Z,18.00
2018-06-02T11:40:17.300Z,18.00
2018-06-02T11:42:44.852Z,18.10
2018-06-02T11:45:12.381Z,18.10
2018-06-02T11:47:39.903Z,18.10
2018-06-02T11:50:07.423Z,18.20
2018-06-02T11:52:34.958Z,18.30
2018-06-02T11:55:02.508Z,18.20
2018-06-02T11:57:30.037Z,18.20
2018-06-02T11:59:57.551Z,18.30
2018-06-02T12:02:25.832Z,18.30
2018-06-02T12:04:53.370Z,18.30
2018-06-02T12:07:20.933Z,18.30
2018-06-02T12:09:49.228Z,18.40
2018-06-02T12:12:17.525Z,18.40
2018-06-02T12:14:45.046Z,18.40
2018-06-02T12:17:12.597Z,18.40
2018-06-02T12:19:40.128Z,18.50
2018-06-02T12:22:07.672Z,18.60
2018-06-02T12:24:35.216Z,18.60
2018-06-02T12:27:02.797Z,18.70
2018-06-02T12:29:30.394Z,18.80
2018-06-02T12:31:57.913Z,18.90
2018-06-02T12:34:25.470Z,19.00
2018-06-02T12:36:52.997Z,19.00
2018-06-02T12:39:20.541Z,19.10
2018-06-02T12:41:48.871Z,19.00
2018-06-02T12:44:16.424Z,19.00
2018-06-02T12:46:44.757Z,19.10
2018-06-02T12:49:13.087Z,19.10
2018-06-02T12:51:40.624Z,19.00
2018-06-02T12:54:08.157Z,19.10
2018-06-02T12:56:36.480Z,19.10
2018-06-02T12:59:04.023Z,19.00
2018-06-02T13:01:31.553Z,19.10
2018-06-02T13:03:59.093Z,19.10
2018-06-02T13:06:26.638Z,19.00
2018-06-02T13:08:54.203Z,19.00
2018-06-02T13:11:21.741Z,19.00
2018-06-02T13:13:49.273Z,19.00
2018-06-02T13:16:16.827Z,19.00
2018-06-02T13:18:44.355Z,19.10
2018-06-02T13:21:12.712Z,19.10
2018-06-02T13:23:40.259Z,19.10
2018-06-02T13:26:07.786Z,19.10
2018-06-02T13:28:35.339Z,19.10
2018-06-02T13:31:02.900Z,19.10
2018-06-02T13:33:30.457Z,19.10
2018-06-02T13:35:57.992Z,19.10
2018-06-02T13:38:26.325Z,19.20
2018-06-02T13:40:53.891Z,19.10
2018-06-02T13:43:24.499Z,19.20
2018-06-02T13:45:52.065Z,19.20
2018-06-02T13:48:19.631Z,19.20
2018-06-02T13:50:47.247Z,19.20
2018-06-02T13:53:14.808Z,19.30
2018-06-02T13:55:42.397Z,19.30
2018-06-02T13:58:09.922Z,19.30
2018-06-02T14:00:37.473Z,19.20
2018-06-02T14:03:05.029Z,19.20
2018-06-02T14:05:32.575Z,19.20
2018-06-02T14:08:00.867Z,19.20
2018-06-02T14:10:29.169Z,19.20
2018-06-02T14:12:56.722Z,19.20
2018-06-02T14:15:24.265Z,19.20
2018-06-02T14:17:52.570Z,19.20
2018-06-02T14:20:20.144Z,19.30
2018-06-02T14:22:48.463Z,19.30
2018-06-02T14:25:16.777Z,19.40
2018-06-02T14:27:44.321Z,19.30
2018-06-02T14:30:11.887Z,19.40
2018-06-02T14:32:39.415Z,19.40
2018-06-02T14:35:07.753Z,19.30
2018-06-02T14:37:35.305Z,19.30
2018-06-02T14:40:02.868Z,19.30
2018-06-02T14:42:30.470Z,19.30
2018-06-02T14:44:58.815Z,19.30
2018-06-02T14:47:27.113Z,19.30
2018-06-02T14:49:54.681Z,19.30
2018-06-02T14:52:23.009Z,19.30
2018-06-02T14:54:50.635Z,19.20
2018-06-02T14:57:18.191Z,19.30
2018-06-02T14:59:46.476Z,19.20
2018-06-02T15:02:14.022Z,19.20
2018-06-02T15:04:41.557Z,19.20
2018-06-02T15:07:09.091Z,19.20
2018-06-02T15:09:36.627Z,19.20
2018-06-02T15:12:04.161Z,19.20
2018-06-02T15:14:32.463Z,19.20
2018-06-02T15:16:59.993Z,19.20
2018-06-02T15:19:27.510Z,19.10
2018-06-02T15:21:55.047Z,19.20
2018-06-02T15:24:22.597Z,19.20
2018-06-02T15:26:50.133Z,19.20
2018-06-02T15:29:17.664Z,19.20
2018-06-02T15:31:45.188Z,19.20
2018-06-02T15:34:12.776Z,19.20
2018-06-02T15:36:40.420Z,19.20
2018-06-02T15:39:08.678Z,19.20
2018-06-02T15:41:36.202Z,19.10
2018-06-02T15:44:03.744Z,19.10
2018-06-02T15:46:32.051Z,19.10
2018-06-02T15:48:59.595Z,19.10
2018-06-02T15:51:27.138Z,19.10
2018-06-02T15:53:55.432Z,19.10
2018-06-02T15:56:23.743Z,19.10
2018-06-02T15:58:51.295Z,19.00
2018-06-02T16:01:18.830Z,19.10
2018-06-02T16:03:46.384Z,19.10
2018-06-02T16:06:13.918Z,19.10
2018-06-02T16:08:42.225Z,19.10
2018-06-02T16:11:09.778Z,19.10
2018-06-02T16:13:37.321Z,19.10
2018-06-02T16:16:05.622Z,19.10
2018-06-02T16:18:33.157Z,19.10
2018-06-02T16:21:01.723Z,19.00
2018-06-02T16:23:29.298Z,19.00
2018-06-02T16:25:57.604Z,18.90
2018-06-02T16:28:25.134Z,18.90
2018-06-02T16:30:53.449Z,18.80
2018-06-02T16:33:20.998Z,18.70
2018-06-02T16:35:48.572Z,18.70
2018-06-02T16:38:16.133Z,18.70
2018-06-02T16:40:43.672Z,18.70
2018-06-02T16:43:11.223Z,18.60
2018-06-02T16:45:38.770Z,18.60
2018-06-02T16:48:07.096Z,18.50
2018-06-02T16:50:34.662Z,18.50
2018-06-02T16:53:02.238Z,18.50
2018-06-02T16:55:29.820Z,18.50
2018-06-02T16:57:57.353Z,18.40
2018-06-02T17:00:24.918Z,18.40
2018-06-02T17:02:52.466Z,18.40
2018-06-02T17:05:20.053Z,18.40
2018-06-02T17:07:47.656Z,18.40
2018-06-02T17:10:15.186Z,18.30
2018-06-02T17:12:43.499Z,18.40
2018-06-02T17:15:11.034Z,18.30
2018-06-02T17:17:38.583Z,18.40
2018-06-02T17:20:06.935Z,18.40
2018-06-02T17:22:34.449Z,18.30
2018-06-02T17:25:01.985Z,18.40
2018-06-02T17:27:29.513Z,18.40
2018-06-02T17:29:57.869Z,18.40
2018-06-02T17:32:25.412Z,18.40
2018-06-02T17:34:52.952Z,18.40
2018-06-02T17:37:20.497Z,18.40
2018-06-02T17:39:48.058Z,18.50
2018-06-02T17:42:15.601Z,18.50
2018-06-02T17:44:43.911Z,18.50
2018-06-02T17:47:11.453Z,18.50
2018-06-02T17:49:39.020Z,18.50
2018-06-02T17:52:06.549Z,18.50
2018-06-02T17:54:34.113Z,18.50
2018-06-02T17:57:01.672Z,18.50
2018-06-02T17:59:29.303Z,18.50
2018-06-02T18:01:56.847Z,18.50
2018-06-02T18:04:24.408Z,18.50
2018-06-02T18:06:51.948Z,18.50
2018-06-02T18:09:19.496Z,18.50
2018-06-02T18:11:47.076Z,18.60
2018-06-02T18:14:14.620Z,18.60
2018-06-02T18:16:42.176Z,18.60
2018-06-02T18:19:09.736Z,18.60
2018-06-02T18:21:37.294Z,18.60
2018-06-02T18:24:04.840Z,18.60
2018-06-02T18:26:32.378Z,18.60
2018-06-02T18:28:59.948Z,18.70
2018-06-02T18:31:28.247Z,18.70
2018-06-02T18:33:55.801Z,18.60
2018-06-02T18:36:23.350Z,18.60
2018-06-02T18:38:50.900Z,18.60
2018-06-02T18:41:18.456Z,18.70
2018-06-02T18:43:45.986Z,18.70
2018-06-02T18:46:13.528Z,18.70
2018-06-02T18:48:41.846Z,18.70
2018-06-02T18:51:10.163Z,18.70
2018-06-02T18:53:37.743Z,18.70
2018-06-02T18:56:05.270Z,18.70
2018-06-02T18:58:32.829Z,18.70
2018-06-02T19:01:00.405Z,18.80
2018-06-02T19:03:27.943Z,18.70
2018-06-02T19:05:55.483Z,18.70
2018-06-02T19:08:23.061Z,18.80
2018-06-02T19:10:50.829Z,18.70
2018-06-02T19:13:18.392Z,18.80
2018-06-02T19:15:45.927Z,18.70
2018-06-02T19:18:14.260Z,18.70
2018-06-02T19:20:41.797Z,18.70
2018-06-02T19:23:09.348Z,18.70
2018-06-02T19:25:37.638Z,18.80
2018-06-02T19:28:05.630Z,18.70
2018-06-02T19:30:33.184Z,18.80
2018-06-02T19:33:00.732Z,18.70
2018-06-02T19:35:28.390Z,18.70
2018-06-02T19:37:55.928Z,18.80
2018-06-02T19:40:23.484Z,18.70
2018-06-02T19:42:51.043Z,18.70
2018-06-02T19:45:18.586Z,18.80
2018-06-02T19:47:46.104Z,18.80
2018-06-02T19:50:13.651Z,18.70
2018-06-02T19:52:41.199Z,18.70
2018-06-02T19:55:08.750Z,18.70
2018-06-02T19:57:36.300Z,18.70
2018-06-02T20:00:03.867Z,18.70
2018-06-02T20:02:31.426Z,18.70
2018-06-02T20:04:59.021Z,18.70
2018-06-02T20:07:26.582Z,18.70
2018-06-02T20:09:54.142Z,18.60
2018-06-02T20:12:21.668Z,18.60
2018-06-02T20:14:49.287Z,18.60
2018-06-02T20:17:16.832Z,18.60
2018-06-02T20:19:45.185Z,18.60
2018-06-02T20:22:12.744Z,18.60
2018-06-02T20:24:40.305Z,18.60
2018-06-02T20:27:07.861Z,18.60
2018-06-02T20:29:35.405Z,18.60
2018-06-02T20:32:03.019Z,18.60
2018-06-02T20:34:31.329Z,18.60
2018-06-02T20:36:58.879Z,18.60
2018-06-02T20:39:26.431Z,18.60
2018-06-02T20:41:53.975Z,18.60
2018-06-02T20:44:21.528Z,18.60
2018-06-02T20:46:49.869Z,18.60
2018-06-02T20:49:17.416Z,18.60
2018-06-02T20:51:45.744Z,18.50
2018-06-02T20:54:13.288Z,18.50
2018-06-02T20:56:40.849Z,18.50
2018-06-02T20:59:09.159Z,18.50
2018-06-02T21:01:36.688Z,18.50
2018-06-02T21:04:04.998Z,18.50
2018-06-02T21:06:32.535Z,18.40
2018-06-02T21:09:00.129Z,18.50
2018-06-02T21:11:27.660Z,18.40
2018-06-02T21:13:55.200Z,18.50
2018-06-02T21:16:22.748Z,18.50
2018-06-02T21:18:51.091Z,18.40
2018-06-02T21:21:18.622Z,18.40
2018-06-02T21:23:46.168Z,18.40
2018-06-02T21:26:13.770Z,18.40
2018-06-02T21:28:41.314Z,18.40
2018-06-02T21:31:08.858Z,18.40
2018-06-02T21:33:36.419Z,18.40
2018-06-02T21:36:03.968Z,18.40
2018-06-02T21:38:31.617Z,18.40
2018-06-02T21:40:59.176Z,18.30
2018-06-02T21:43:27.481Z,18.30
2018-06-02T21:45:55.028Z,18.30
2018-06-02T21:48:22.570Z,18.40
2018-06-02T21:50:50.895Z,18.40
2018-06-02T21:53:18.486Z,18.40
2018-06-02T21:55:46.800Z,18.30
2018-06-02T21:58:14.354Z,18.30
2018-06-02T22:00:41.878Z,18.30
2018-06-02T22:03:09.434Z,18.30
2018-06-02T22:05:36.994Z,18.30
2018-06-02T22:08:04.540Z,18.30
2018-06-02T22:10:32.085Z,18.40
2018-06-02T22:12:59.620Z,18.30
2018-06-02T22:15:27.145Z,18.30
2018-06-02T22:17:55.494Z,18.30
2018-06-02T22:20:23.051Z,18.30
2018-06-02T22:22:50.582Z,18.30
2018-06-02T22:25:18.533Z,18.30
2018-06-02T22:27:46.139Z,18.20
2018-06-02T22:30:13.707Z,18.20
2018-06-02T22:32:41.233Z,18.20
2018-06-02T22:35:08.815Z,18.20
2018-06-02T22:37:36.384Z,18.20
2018-06-02T22:40:03.942Z,18.20
2018-06-02T22:42:31.471Z,18.10
2018-06-02T22:44:59.012Z,18.20
2018-06-02T22:47:26.562Z,18.10
2018-06-02T22:49:54.110Z,18.10
2018-06-02T22:52:21.656Z,18.10
2018-06-02T22:54:49.971Z,18.00
2018-06-02T22:57:17.498Z,18.00
2018-06-02T22:59:45.800Z,18.00
2018-06-02T23:02:13.331Z,18.00
2018-06-02T23:04:41.660Z,18.00
2018-06-02T23:07:09.200Z,18.00
2018-06-02T23:09:36.758Z,18.00
2018-06-02T23:12:05.051Z,18.00
2018-06-02T23:14:32.596Z,18.00
2018-06-02T23:17:00.129Z,18.00
2018-06-02T23:19:27.658Z,18.00
2018-06-02T23:21:55.223Z,17.90
2018-06-02T23:24:23.524Z,17.90
2018-06-02T23:26:51.076Z,17.90
2018-06-02T23:29:18.648Z,17.90
2018-06-02T23:31:46.200Z,17.90
2018-06-02T23:34:13.737Z,17.90
2018-06-02T23:36:42.038Z,17.90
2018-06-02T23:39:09.600Z,17.80
2018-06-02T23:41:37.143Z,17.90
2018-06-02T23:44:04.761Z,17.90
2018-06-02T23:46:32.360Z,17.80
2018-06-02T23:48:59.909Z,17.80
2018-06-02T23:51:28.203Z,17.80
2018-06-02T23:53:55.736Z,17.80
2018-06-02T23:56:23.313Z,17.70
2018-06-02T23:58:51.614Z,17.80
